Latest Weather Observations for Williamtown

IDN60901

Issued at 4:21 pm EDT Tuesday 31 March 2015 (issued every 10 minutes, with the page automatically refreshed every 10 minutes)

About weather observations | Map of Sydney area stations | Latest observations for Sydney area | Other Formats
Station Details ID: 061078 Name: WILLIAMTOWN RAAF Lat: -32.79 Lon: 151.84 Height: 9.0 m
Data from the previous 72 hours. | See also: Recent months at Williamtown
Date/Time
EDT
Tmp

°C
App
Tmp
°C
Dew
Point
°C
Rel
Hum
%
Delta-T

°C
Wind Press
QNH
hPa
Press
MSL
hPa
Rain
since
9 am
mm
Dir
 
Spd
km/h
Gust
km/h
Spd
kts
Gust
kts
31/04:00pm 21.7 21.0 17.3 76 2.7 ESE 17 20 9 11 1023.9 1023.8 2.8
31/03:30pm 22.3 21.0 17.2 73 3.1 SE 20 28 11 15 1024.0 1023.9 2.8
31/03:00pm 22.0 21.3 17.4 75 2.8 ESE 17 22 9 12 1024.0 1023.9 2.8
31/02:30pm 20.7 21.4 17.9 84 1.7 SE 11 17 6 9 1024.2 1024.1 2.8
31/02:08pm 19.7 20.9 18.2 91 0.9 E 9 13 5 7 1024.4 1024.3 2.8
31/02:03pm 19.4 20.5 18.1 92 0.8 ENE 9 13 5 7 1024.5 1024.4 2.8
31/02:00pm 19.4 20.2 18.1 92 0.8 E 11 13 6 7 1024.6 1024.5 2.8
31/01:30pm 18.7 17.1 17.5 93 0.7 E 22 28 12 15 1025.2 1025.1 2.6
31/01:25pm 18.8 17.2 17.5 92 0.8 E 22 32 12 17 1025.3 1025.2 2.4
31/01:00pm 19.0 18.2 17.2 89 1.1 NE 17 24 9 13 1025.5 1025.4 1.0
31/12:50pm 19.0 17.7 17.3 90 1.0 NE 20 28 11 15 1025.6 1025.5 0.8
31/12:30pm 21.0 20.5 16.0 73 3.0 ENE 13 17 7 9 1025.6 1025.5 0.4
31/12:00pm 21.1 19.9 15.0 68 3.6 E 15 22 8 12 1026.0 1025.9 0.4
31/11:30am 21.2 19.8 15.5 70 3.4 E 17 28 9 15 1026.1 1026.0 0.4
31/11:00am 20.9 20.1 17.1 79 2.3 E 17 20 9 11 1026.3 1026.2 0.4
31/10:30am 20.5 20.1 17.2 81 2.0 ENE 15 22 8 12 1026.4 1026.3 0.4
31/10:00am 19.7 20.0 17.9 89 1.1 ENE 13 20 7 11 1026.2 1026.1 0.4
31/09:30am 19.2 18.5 17.4 89 1.1 ENE 17 26 9 14 1026.0 1025.9 0.4
31/09:00am 19.9 21.3 17.9 88 1.2 E 7 11 4 6 1025.9 1025.8 13.2
31/08:30am 19.3 20.6 17.5 89 1.1 E 7 9 4 5 1025.6 1025.5 13.2
31/08:00am 19.2 20.1 17.6 90 1.0 NE 9 15 5 8 1025.2 1025.1 13.2
31/07:30am 19.0 19.2 17.7 92 0.8 ESE 13 17 7 9 1024.7 1024.6 13.2
31/07:25am 19.1 19.4 17.8 92 0.8 E 13 17 7 9 1024.7 1024.6 13.2
31/07:00am 19.2 19.6 18.1 93 0.7 ESE 13 19 7 10 1024.4 1024.3 13.0
31/06:48am 19.0 18.6 18.0 94 0.6 SE 17 20 9 11 1024.4 1024.3 13.0
31/06:29am 18.6 19.2 17.8 95 0.5 ESE 11 26 6 14 1024.2 1024.1 12.4
31/05:30am 17.0 19.3 16.7 98 0.2 CALM 0 0 0 0 1023.9 1023.8 11.0
31/05:00am 16.9 19.1 16.6 98 0.2 CALM 0 0 0 0 1023.7 1023.6 11.0
31/04:30am 17.1 19.3 16.6 97 0.3 CALM 0 0 0 0 1023.8 1023.7 11.0
31/04:00am 17.2 19.5 16.7 97 0.3 CALM 0 0 0 0 1023.8 1023.7 11.0
31/03:30am 17.4 19.7 16.7 96 0.4 CALM 0 0 0 0 1023.9 1023.8 11.0
31/03:00am 17.6 19.9 16.8 95 0.5 CALM 0 0 0 0 1024.0 1023.9 11.0
31/02:30am 17.7 18.9 16.9 95 0.5 SSE 6 7 3 4 1024.1 1024.0 11.0
31/02:00am 17.5 19.8 16.8 96 0.4 CALM 0 7 0 4 1024.5 1024.4 11.0
31/01:30am 17.5 18.7 16.8 96 0.4 SSE 6 7 3 4 1024.6 1024.5 11.0
31/01:00am 17.4 18.0 16.7 96 0.4 SSW 9 11 5 6 1024.5 1024.4 11.0
31/12:30am 17.8 18.9 17.0 95 0.5 E 7 7 4 4 1024.4 1024.3 10.6
 
Date/Time
EDT
Tmp

°C
App
Tmp
°C
Dew
Point
°C
Rel
Hum
%
Delta-T

°C
Wind Press
QNH
hPa
Press
MSL
hPa
Rain
since
9 am
mm
Dir
 
Spd
km/h
Gust
km/h
Spd
kts
Gust
kts
30/11:30pm 17.6 18.8 16.8 95 0.5 NNW 6 7 3 4 1024.6 1024.5 9.8
30/11:00pm 17.6 18.2 16.8 95 0.5 NNW 9 11 5 6 1024.9 1024.8 9.6
30/10:30pm 17.9 18.9 16.9 94 0.6 NNE 7 9 4 5 1025.1 1025.0 9.6
30/10:00pm 18.0 18.2 16.8 93 0.7 N 11 15 6 8 1025.3 1025.2 9.2
30/09:30pm 18.5 18.1 17.2 92 0.8 NNE 15 20 8 11 1025.2 1025.1 7.8
30/09:00pm 19.0 19.3 18.0 94 0.6 NNE 13 17 7 9 1025.0 1024.9 6.4
30/08:30pm 19.3 19.6 18.0 92 0.8 NNE 13 19 7 10 1024.5 1024.4 4.6
30/08:00pm 19.8 19.5 18.2 90 1.0 NE 17 22 9 12 1024.2 1024.1 3.4
30/07:30pm 20.2 21.8 19.1 93 0.7 NE 9 17 5 9 1023.8 1023.7 2.2
30/07:00pm 20.7 21.4 18.9 89 1.1 NE 13 17 7 9 1023.2 1023.1 0.6
30/06:30pm 22.1 22.9 18.1 78 2.5 ENE 11 13 6 7 1022.9 1022.8 0.0
30/05:30pm 22.8 22.9 17.4 71 3.3 ENE 13 19 7 10 1022.1 1022.0 0.0
30/05:00pm 23.3 22.9 18.0 72 3.3 ENE 17 24 9 13 1021.8 1021.7 0.0
30/04:30pm 23.1 22.8 18.3 74 3.0 E 17 28 9 15 1021.8 1021.7 0.0
30/04:00pm 23.3 22.4 18.2 73 3.2 ESE 20 28 11 15 1021.8 1021.7 0.0
30/03:30pm 23.7 21.5 15.9 61 4.7 ESE 22 32 12 17 1021.9 1021.8 0.0
30/03:00pm 23.2 21.8 17.0 68 3.8 ESE 20 30 11 16 1022.3 1022.2 0.0
30/02:30pm 23.4 21.0 16.5 65 4.2 ESE 24 33 13 18 1022.4 1022.3 0.0
30/02:00pm 24.1 21.7 17.3 65 4.2 SE 26 30 14 16 1022.5 1022.4 0.0
30/01:30pm 24.4 24.1 16.5 61 4.8 ESE 13 20 7 11 1022.7 1022.6 0.0
30/01:00pm 23.9 22.4 16.3 62 4.6 E 19 26 10 14 1022.9 1022.8 0.0
30/12:30pm 23.7 20.8 14.1 55 5.6 E 22 30 12 16 1023.3 1023.2 0.0
30/12:00pm 22.7 21.7 16.6 68 3.7 E 17 20 9 11 1023.8 1023.7 0.0
30/11:30am 21.9 22.1 16.8 73 3.1 NE 11 15 6 8 1023.8 1023.7 0.0
30/11:00am 21.0 20.7 15.4 70 3.3 NNW 11 15 6 8 1024.0 1023.9 0.0
30/10:30am 21.4 22.1 16.1 72 3.2 SW 7 9 4 5 1023.8 1023.7 0.0
30/10:00am 21.0 21.0 16.2 74 2.9 WNW 11 15 6 8 1023.6 1023.5 0.0
30/09:30am 20.0 20.3 16.9 82 1.9 SSW 11 17 6 9 1023.7 1023.6 0.0
30/09:00am 19.7 20.0 17.9 89 1.1 WSW 13 20 7 11 1024.0 1023.9 0.0
30/08:30am 18.8 18.2 17.6 93 0.7 W 17 22 9 12 1024.1 1024.0 0.0
30/08:00am 18.6 19.5 17.6 94 0.6 W 9 13 5 7 1023.6 1023.5 0.0
30/07:30am 18.6 18.9 17.8 95 0.5 NW 13 15 7 8 1023.4 1023.3 0.0
30/07:00am 18.2 18.7 17.5 96 0.4 NW 11 15 6 8 1022.9 1022.8 0.0
30/06:30am 18.4 19.9 17.7 96 0.4 WNW 6 9 3 5 1022.2 1022.1 0.0
30/06:00am 17.8 19.5 17.1 96 0.4 WNW 4 11 2 6 1021.7 1021.6 0.0
30/05:30am 17.7 20.1 16.9 95 0.5 CALM 0 9 0 5 1021.4 1021.3 0.0
30/05:00am 17.7 20.1 16.9 95 0.5 CALM 0 0 0 0 1021.0 1020.9 0.0
30/04:30am 17.7 20.1 16.9 95 0.5 CALM 0 0 0 0 1020.9 1020.8 0.0
30/04:00am 17.4 19.6 16.6 95 0.5 CALM 0 0 0 0 1021.0 1020.9 0.0
30/03:30am 17.8 20.1 16.8 94 0.6 CALM 0 0 0 0 1020.9 1020.8 0.0
30/03:00am 17.6 19.9 16.8 95 0.5 CALM 0 0 0 0 1021.3 1021.2 0.0
30/02:30am 17.6 19.8 16.6 94 0.6 CALM 0 0 0 0 1021.5 1021.4 0.0
30/02:00am 17.9 20.1 16.6 92 0.8 CALM 0 0 0 0 1021.6 1021.5 0.0
30/01:30am 18.0 20.4 17.0 94 0.6 CALM 0 0 0 0 1021.8 1021.7 0.0
30/01:00am 18.1 20.5 16.9 93 0.7 CALM 0 0 0 0 1021.9 1021.8 0.0
30/12:30am 18.1 20.4 16.8 92 0.8 CALM 0 0 0 0 1022.0 1021.9 0.0
30/12:00am 18.5 20.8 16.7 89 1.1 CALM 0 0 0 0 1022.3 1022.2 0.0
 
Date/Time
EDT
Tmp

°C
App
Tmp
°C
Dew
Point
°C
Rel
Hum
%
Delta-T

°C
Wind Press
QNH
hPa
Press
MSL
hPa
Rain
since
9 am
mm
Dir
 
Spd
km/h
Gust
km/h
Spd
kts
Gust
kts
29/11:30pm 19.5 20.3 17.4 88 1.3 NE 9 11 5 6 1022.2 1022.1 0.0
29/11:00pm 19.6 20.4 17.3 86 1.4 NNE 9 11 5 6 1022.5 1022.4 0.0
29/10:30pm 20.1 20.6 17.5 85 1.6 NE 11 13 6 7 1022.5 1022.4 0.0
29/10:00pm 19.8 19.8 17.3 85 1.5 NE 13 15 7 8 1022.3 1022.2 0.0
29/09:30pm 20.4 20.8 17.3 82 1.9 ENE 11 13 6 7 1022.3 1022.2 0.0
29/09:00pm 20.1 20.4 17.1 83 1.8 ENE 11 15 6 8 1022.1 1022.0 0.0
29/08:30pm 20.6 20.6 17.1 80 2.1 ENE 13 17 7 9 1021.9 1021.8 0.0
29/08:00pm 21.4 21.7 17.0 76 2.7 ENE 11 13 6 7 1021.8 1021.7 0.0
29/07:30pm 21.8 21.7 16.9 73 3.0 ENE 13 19 7 10 1021.4 1021.3 0.0
29/07:00pm 22.4 22.1 16.5 69 3.6 ENE 13 24 7 13 1021.0 1020.9 0.0
29/06:30pm 23.1 21.6 16.2 65 4.2 E 19 26 10 14 1021.1 1021.0 0.0
29/06:00pm 23.9 22.0 15.8 60 4.9 ENE 20 26 11 14 1021.1 1021.0 0.0
29/05:30pm 24.6 22.1 15.1 55 5.7 E 22 30 12 16 1020.8 1020.7 0.0
29/05:00pm 25.2 23.2 16.4 58 5.4 ESE 22 30 12 16 1020.6 1020.5 0.0
29/04:30pm 24.9 22.3 15.8 57 5.5 ESE 24 32 13 17 1020.5 1020.4 0.0
29/04:00pm 25.0 22.8 15.9 57 5.5 ESE 22 30 12 16 1020.4 1020.3 0.0
29/03:30pm 24.3 21.2 15.5 58 5.3 ESE 26 33 14 18 1020.5 1020.4 0.0
29/03:00pm 24.4 21.2 15.4 57 5.4 ESE 26 32 14 17 1020.8 1020.7 0.0
29/02:30pm 25.6 23.8 15.5 53 6.1 ESE 19 30 10 16 1020.9 1020.8 0.0
29/02:00pm 25.3 24.1 14.1 50 6.6 ESE 13 19 7 10 1021.4 1021.3 0.0
29/01:30pm 26.0 25.2 14.0 47 7.1 NE 11 20 6 11 1021.7 1021.6 0.0
29/01:00pm 25.4 24.7 14.4 50 6.5 NNE 11 17 6 9 1022.2 1022.1 0.0
29/12:30pm 24.0 23.6 14.1 54 5.8 NE 9 15 5 8 1022.8 1022.7 0.0
29/12:00pm 24.6 23.6 14.5 53 6.0 NNE 13 26 7 14 1023.1 1023.0 0.0
29/11:30am 23.5 21.5 13.9 55 5.6 NE 17 26 9 14 1023.0 1022.9 0.0
29/11:00am 23.8 21.2 13.7 53 5.9 ENE 20 30 11 16 1023.2 1023.1 0.0
29/10:30am 23.2 21.6 13.9 56 5.4 NE 15 22 8 12 1023.6 1023.5 0.0
29/10:00am 22.4 21.5 13.8 58 5.0 NNE 11 17 6 9 1023.5 1023.4 0.0
29/09:30am 21.2 20.9 14.5 65 3.9 NNE 9 11 5 6 1023.5 1023.4 0.0
29/09:00am 19.7 21.3 14.9 74 2.8 CALM 0 0 0 0 1023.6 1023.5 0.0
29/08:30am 16.8 18.4 14.9 88 1.1 CALM 0 0 0 0 1023.3 1023.2 0.0
29/06:30am 13.7 14.6 12.8 94 0.5 CALM 0 0 0 0 1022.2 1022.1 0.0
29/06:00am 14.3 15.3 13.2 93 0.6 CALM 0 0 0 0 1021.9 1021.8 0.0
29/05:30am 14.7 15.8 13.4 92 0.7 CALM 0 0 0 0 1022.0 1021.9 0.0
29/05:00am 14.6 15.7 13.5 93 0.6 CALM 0 0 0 0 1022.0 1021.9 0.0
29/04:30am 14.6 15.6 13.3 92 0.7 CALM 0 0 0 0 1021.9 1021.8 0.0
29/04:00am 14.5 15.4 13.0 91 0.8 CALM 0 0 0 0 1021.5 1021.4 0.0
29/03:30am 14.0 14.8 12.5 91 0.8 CALM 0 0 0 0 1021.8 1021.7 0.0
29/03:00am 14.7 15.7 13.1 90 0.9 CALM 0 0 0 0 1022.0 1021.9 0.0
29/02:30am 15.2 16.3 13.6 90 0.9 CALM 0 0 0 0 1022.3 1022.2 0.0
29/02:00am 15.3 16.3 13.3 88 1.1 CALM 0 0 0 0 1022.4 1022.3 0.0
29/01:30am 15.1 16.1 13.3 89 1.0 CALM 0 0 0 0 1022.6 1022.5 0.0
29/01:00am 14.1 14.9 12.6 91 0.8 CALM 0 0 0 0 1022.9 1022.8 0.0
29/12:30am 13.9 14.7 12.6 92 0.7 CALM 0 0 0 0 1023.0 1022.9 0.0
29/12:00am 13.0 13.5 11.5 91 0.8 CALM 0 0 0 0 1023.0 1022.9 0.0
 
Date/Time
EDT
Tmp

°C
App
Tmp
°C
Dew
Point
°C
Rel
Hum
%
Delta-T

°C
Wind Press
QNH
hPa
Press
MSL
hPa
Rain
since
9 am
mm
Dir
 
Spd
km/h
Gust
km/h
Spd
kts
Gust
kts
28/11:30pm 13.6 14.2 11.9 89 0.9 CALM 0 0 0 0 1023.4 1023.3 0.0
28/11:00pm 13.5 14.1 11.8 89 0.9 CALM 0 0 0 0 1023.6 1023.5 0.0
28/10:30pm 13.7 14.3 11.8 88 1.0 CALM 0 0 0 0 1023.5 1023.4 0.0
28/10:00pm 14.3 15.0 12.3 88 1.1 CALM 0 0 0 0 1023.5 1023.4 0.0
28/09:30pm 14.3 15.0 12.1 87 1.2 CALM 0 0 0 0 1023.3 1023.2 0.0
28/09:00pm 14.9 15.6 12.3 84 1.4 CALM 0 0 0 0 1023.1 1023.0 0.0
28/08:30pm 15.7 16.4 12.2 80 1.9 CALM 0 0 0 0 1022.8 1022.7 0.0
28/08:00pm 16.8 16.2 12.4 75 2.4 E 7 9 4 5 1022.5 1022.4 0.0
28/07:30pm 18.6 17.6 12.3 67 3.5 E 9 11 5 6 1022.3 1022.2 0.0
28/07:00pm 19.3 17.9 12.1 63 4.0 ESE 11 15 6 8 1021.9 1021.8 0.0
28/06:30pm 20.4 18.5 11.9 58 4.7 ESE 13 19 7 10 1022.0 1021.9 0.0
28/06:00pm 21.2 18.4 11.4 53 5.4 SE 17 19 9 10 1021.7 1021.6 0.0
28/05:30pm 21.9 18.8 11.7 52 5.7 SE 19 26 10 14 1021.5 1021.4 0.0
28/05:00pm 21.9 18.7 11.9 53 5.6 SE 20 28 11 15 1021.4 1021.3 0.0
28/04:30pm 22.6 19.3 11.7 50 6.1 SE 20 28 11 15 1021.5 1021.4 0.0

Latest Capital City Observations: Canberra | Sydney | Melbourne | Brisbane | Adelaide | Perth | Hobart | Darwin

Other Formats:

Comma delimited format used in spreadsheet applications
http://www.bom.gov.au/fwo/IDN60901/IDN60901.94776.axf

JavaScript Object Notation format (JSON) in row-major order
http://www.bom.gov.au/fwo/IDN60901/IDN60901.94776.json